sensor_id;sensor_type;location;lat;lon;timestamp;pressure;altitude;pressure_sealevel;temperature;humidity
41312;BME280;27061;41.648;24.568;2023-05-01T00:01:00;85816.09;;;9.27;64.85
41312;BME280;27061;41.648;24.568;2023-05-01T00:03:28;85843.63;;;9.37;65.27
41312;BME280;27061;41.648;24.568;2023-05-01T00:05:59;85840.22;;;9.32;65.25
41312;BME280;27061;41.648;24.568;2023-05-01T00:08:27;85822.47;;;9.09;65.37
41312;BME280;27061;41.648;24.568;2023-05-01T00:10:54;85843.03;;;9.22;66.07
41312;BME280;27061;41.648;24.568;2023-05-01T00:13:21;85786.16;;;8.74;65.82
41312;BME280;27061;41.648;24.568;2023-05-01T00:15:50;85707.31;;;8.03;65.65
41312;BME280;27061;41.648;24.568;2023-05-01T00:18:18;85854.16;;;9.14;65.71
41312;BME280;27061;41.648;24.568;2023-05-01T00:20:45;85851.44;;;9.10;66.14
41312;BME280;27061;41.648;24.568;2023-05-01T00:23:16;85852.88;;;9.03;65.96
41312;BME280;27061;41.648;24.568;2023-05-01T00:25:43;85759.50;;;8.38;65.85
41312;BME280;27061;41.648;24.568;2023-05-01T00:28:10;85815.81;;;8.71;66.42
41312;BME280;27061;41.648;24.568;2023-05-01T00:30:37;85816.50;;;8.76;66.40
41312;BME280;27061;41.648;24.568;2023-05-01T00:33:04;85850.84;;;8.97;66.90
41312;BME280;27061;41.648;24.568;2023-05-01T00:35:31;85830.31;;;8.74;67.41
41312;BME280;27061;41.648;24.568;2023-05-01T00:37:58;85820.09;;;8.56;68.75
41312;BME280;27061;41.648;24.568;2023-05-01T00:40:25;85859.06;;;9.05;67.69
41312;BME280;27061;41.648;24.568;2023-05-01T00:42:53;85850.16;;;8.97;67.53
41312;BME280;27061;41.648;24.568;2023-05-01T00:45:20;85860.50;;;9.00;67.37
41312;BME280;27061;41.648;24.568;2023-05-01T00:47:47;85818.59;;;8.69;67.45
41312;BME280;27061;41.648;24.568;2023-05-01T00:50:15;85820.00;;;8.66;67.57
41312;BME280;27061;41.648;24.568;2023-05-01T00:52:42;85804.88;;;8.59;67.41
41312;BME280;27061;41.648;24.568;2023-05-01T00:55:10;85832.31;;;8.84;66.64
41312;BME280;27061;41.648;24.568;2023-05-01T00:57:38;85738.88;;;8.25;66.30
41312;BME280;27061;41.648;24.568;2023-05-01T01:00:06;85832.25;;;8.92;66.48
41312;BME280;27061;41.648;24.568;2023-05-01T01:02:36;85859.75;;;9.06;66.58
41312;BME280;27061;41.648;24.568;2023-05-01T01:05:04;85826.78;;;8.81;67.23
41312;BME280;27061;41.648;24.568;2023-05-01T01:07:40;85848.19;;;8.83;67.07
41312;BME280;27061;41.648;24.568;2023-05-01T01:10:26;85774.75;;;8.21;67.85
41312;BME280;27061;41.648;24.568;2023-05-01T01:13:03;85857.22;;;8.73;68.37
41312;BME280;27061;41.648;24.568;2023-05-01T01:21:11;85812.00;;;8.20;68.64
41312;BME280;27061;41.648;24.568;2023-05-01T01:32:08;85862.91;;;8.45;68.45
41312;BME280;27061;41.648;24.568;2023-05-01T01:34:46;85801.16;;;7.79;68.71
41312;BME280;27061;41.648;24.568;2023-05-01T01:37:20;85774.97;;;7.76;68.43
41312;BME280;27061;41.648;24.568;2023-05-01T01:39:52;85814.91;;;7.87;68.57
41312;BME280;27061;41.648;24.568;2023-05-01T01:42:24;85828.59;;;8.05;68.90
41312;BME280;27061;41.648;24.568;2023-05-01T01:44:58;85856.09;;;8.22;68.68
41312;BME280;27061;41.648;24.568;2023-05-01T01:47:29;85856.09;;;8.20;69.64
41312;BME280;27061;41.648;24.568;2023-05-01T01:50:04;85784.66;;;7.73;69.64
41312;BME280;27061;41.648;24.568;2023-05-01T01:52:33;85821.72;;;8.00;69.38
41312;BME280;27061;41.648;24.568;2023-05-01T01:55:08;85809.38;;;7.91;69.48
41312;BME280;27061;41.648;24.568;2023-05-01T01:57:38;85790.19;;;7.67;70.67
41312;BME280;27061;41.648;24.568;2023-05-01T02:00:08;85777.13;;;7.59;70.50
41312;BME280;27061;41.648;24.568;2023-05-01T02:02:43;85832.81;;;7.90;70.80
41312;BME280;27061;41.648;24.568;2023-05-01T02:05:14;85786.09;;;7.56;70.01
41312;BME280;27061;41.648;24.568;2023-05-01T02:07:46;85849.31;;;8.02;70.52
41312;BME280;27061;41.648;24.568;2023-05-01T02:10:15;85803.97;;;7.65;70.85
41312;BME280;27061;41.648;24.568;2023-05-01T02:12:45;85861.03;;;8.03;70.82
41312;BME280;27061;41.648;24.568;2023-05-01T02:15:14;85852.06;;;8.04;69.84
41312;BME280;27061;41.648;24.568;2023-05-01T02:17:42;85825.94;;;7.85;70.15
41312;BME280;27061;41.648;24.568;2023-05-01T02:20:10;85855.47;;;8.07;69.94
41312;BME280;27061;41.648;24.568;2023-05-01T02:22:42;85823.22;;;7.75;69.74
41312;BME280;27061;41.648;24.568;2023-05-01T02:25:11;85859.00;;;7.93;69.49
41312;BME280;27061;41.648;24.568;2023-05-01T02:28:00;85822.56;;;7.68;69.27
41312;BME280;27061;41.648;24.568;2023-05-01T02:30:28;85757.31;;;7.12;69.08
41312;BME280;27061;41.648;24.568;2023-05-01T02:32:55;85860.38;;;7.92;69.11
41312;BME280;27061;41.648;24.568;2023-05-01T02:35:23;85862.44;;;7.94;69.08
41312;BME280;27061;41.648;24.568;2023-05-01T02:37:50;85862.41;;;7.96;69.18
41312;BME280;27061;41.648;24.568;2023-05-01T02:40:18;85829.44;;;7.63;69.66
41312;BME280;27061;41.648;24.568;2023-05-01T02:42:46;85835.63;;;7.68;69.58
41312;BME280;27061;41.648;24.568;2023-05-01T02:45:19;85851.47;;;7.71;69.89
41312;BME280;27061;41.648;24.568;2023-05-01T02:47:51;85831.50;;;7.67;70.12
41312;BME280;27061;41.648;24.568;2023-05-01T02:50:21;85823.97;;;7.57;70.03
41312;BME280;27061;41.648;24.568;2023-05-01T02:52:49;85797.19;;;7.27;70.13
41312;BME280;27061;41.648;24.568;2023-05-01T02:55:40;85847.34;;;7.64;69.96
41312;BME280;27061;41.648;24.568;2023-05-01T02:58:14;85849.41;;;7.66;70.04
41312;BME280;27061;41.648;24.568;2023-05-01T03:00:41;85795.84;;;7.16;70.37
41312;BME280;27061;41.648;24.568;2023-05-01T03:03:09;85837.06;;;7.57;70.45
41312;BME280;27061;41.648;24.568;2023-05-01T03:05:37;85819.19;;;7.31;72.17
41312;BME280;27061;41.648;24.568;2023-05-01T03:08:05;85847.41;;;7.50;71.33
41312;BME280;27061;41.648;24.568;2023-05-01T03:10:32;85841.88;;;7.52;70.36
41312;BME280;27061;41.648;24.568;2023-05-01T03:13:00;85873.53;;;7.69;70.04
41312;BME280;27061;41.648;24.568;2023-05-01T03:15:27;85839.84;;;7.51;69.99
41312;BME280;27061;41.648;24.568;2023-05-01T03:17:54;85853.59;;;7.51;70.34
41312;BME280;27061;41.648;24.568;2023-05-01T03:20:21;85809.59;;;7.28;69.63
41312;BME280;27061;41.648;24.568;2023-05-01T03:22:48;85850.84;;;7.49;69.88
41312;BME280;27061;41.648;24.568;2023-05-01T03:25:18;85837.09;;;7.39;69.85
41312;BME280;27061;41.648;24.568;2023-05-01T03:27:46;85876.28;;;7.65;69.95
41312;BME280;27061;41.648;24.568;2023-05-01T03:30:15;85851.56;;;7.39;70.02
41312;BME280;27061;41.648;24.568;2023-05-01T03:32:42;85863.94;;;7.50;70.40
41312;BME280;27061;41.648;24.568;2023-05-01T03:35:16;85798.63;;;6.92;70.93
41312;BME280;27061;41.648;24.568;2023-05-01T03:37:43;85888.03;;;7.58;71.07
41312;BME280;27061;41.648;24.568;2023-05-01T03:40:17;85862.56;;;7.39;71.38
41312;BME280;27061;41.648;24.568;2023-05-01T03:42:54;85892.13;;;7.65;71.08
41312;BME280;27061;41.648;24.568;2023-05-01T03:45:22;85827.47;;;7.21;71.08
41312;BME280;27061;41.648;24.568;2023-05-01T03:47:50;85811.00;;;7.05;71.92
41312;BME280;27061;41.648;24.568;2023-05-01T03:50:18;85881.16;;;7.49;71.77
41312;BME280;27061;41.648;24.568;2023-05-01T03:52:48;85899.69;;;7.64;72.39
41312;BME280;27061;41.648;24.568;2023-05-01T03:55:15;85828.22;;;7.06;72.41
41312;BME280;27061;41.648;24.568;2023-05-01T03:57:44;85912.13;;;7.55;72.49
41312;BME280;27061;41.648;24.568;2023-05-01T04:00:14;85907.31;;;7.56;72.42
41312;BME280;27061;41.648;24.568;2023-05-01T04:02:41;85904.56;;;7.48;72.64
41312;BME280;27061;41.648;24.568;2023-05-01T04:05:13;85888.72;;;7.42;73.08
41312;BME280;27061;41.648;24.568;2023-05-01T04:07:46;85872.94;;;7.30;73.93
41312;BME280;27061;41.648;24.568;2023-05-01T04:10:13;85913.47;;;7.64;74.31
41312;BME280;27061;41.648;24.568;2023-05-01T04:12:47;85908.66;;;7.65;74.54
41312;BME280;27061;41.648;24.568;2023-05-01T04:15:14;85911.41;;;7.67;75.54
41312;BME280;27061;41.648;24.568;2023-05-01T04:17:43;85874.31;;;7.07;77.01
41312;BME280;27061;41.648;24.568;2023-05-01T04:20:10;85888.06;;;7.17;77.31
41312;BME280;27061;41.648;24.568;2023-05-01T04:22:38;85919.69;;;7.53;77.20
41312;BME280;27061;41.648;24.568;2023-05-01T04:25:06;85883.22;;;7.34;76.95
41312;BME280;27061;41.648;24.568;2023-05-01T04:27:34;85877.72;;;7.38;77.10
41312;BME280;27061;41.648;24.568;2023-05-01T04:30:01;85853.69;;;6.94;78.59
41312;BME280;27061;41.648;24.568;2023-05-01T04:32:29;85855.03;;;7.11;78.07
41312;BME280;27061;41.648;24.568;2023-05-01T04:34:57;85908.66;;;7.67;78.01
41312;BME280;27061;41.648;24.568;2023-05-01T04:37:25;85922.38;;;7.85;77.76
41312;BME280;27061;41.648;24.568;2023-05-01T04:39:52;85881.13;;;7.53;77.91
41312;BME280;27061;41.648;24.568;2023-05-01T04:42:21;85867.41;;;7.39;79.27
41312;BME280;27061;41.648;24.568;2023-05-01T04:44:48;85928.59;;;7.90;79.76
41312;BME280;27061;41.648;24.568;2023-05-01T04:47:15;85899.69;;;7.75;79.95
41312;BME280;27061;41.648;24.568;2023-05-01T04:49:43;85909.31;;;7.80;80.13
41312;BME280;27061;41.648;24.568;2023-05-01T04:52:10;85865.97;;;7.58;79.29
41312;BME280;27061;41.648;24.568;2023-05-01T04:55:04;85906.53;;;7.88;79.25
41312;BME280;27061;41.648;24.568;2023-05-01T04:57:36;85934.75;;;8.13;80.77
41312;BME280;27061;41.648;24.568;2023-05-01T05:00:06;85904.44;;;8.00;81.92
41312;BME280;27061;41.648;24.568;2023-05-01T05:02:42;85924.31;;;8.29;83.17
41312;BME280;27061;41.648;24.568;2023-05-01T05:05:12;85898.19;;;8.10;85.53
41312;BME280;27061;41.648;24.568;2023-05-01T05:07:39;85875.50;;;8.01;86.10
41312;BME280;27061;41.648;24.568;2023-05-01T05:10:25;85862.44;;;7.94;86.70
41312;BME280;27061;41.648;24.568;2023-05-01T05:13:12;85898.81;;;8.31;85.37
41312;BME280;27061;41.648;24.568;2023-05-01T05:15:39;85944.16;;;8.74;83.62
41312;BME280;27061;41.648;24.568;2023-05-01T05:18:08;85944.16;;;8.72;83.08
41312;BME280;27061;41.648;24.568;2023-05-01T05:20:38;85895.97;;;8.49;82.77
41312;BME280;27061;41.648;24.568;2023-05-01T05:23:05;85952.97;;;9.03;81.44
41312;BME280;27061;41.648;24.568;2023-05-01T05:25:34;85858.09;;;8.39;80.71
41312;BME280;27061;41.648;24.568;2023-05-01T05:28:01;85942.59;;;9.06;80.63
41312;BME280;27061;41.648;24.568;2023-05-01T05:30:28;85960.47;;;9.21;80.69
41312;BME280;27061;41.648;24.568;2023-05-01T05:32:57;85930.16;;;9.07;80.69
41312;BME280;27061;41.648;24.568;2023-05-01T05:35:26;85888.94;;;8.78;79.69
41312;BME280;27061;41.648;24.568;2023-05-01T05:37:53;85956.19;;;9.38;79.20
41312;BME280;27061;41.648;24.568;2023-05-01T05:40:21;85921.84;;;9.13;78.81
41312;BME280;27061;41.648;24.568;2023-05-01T05:42:56;85945.81;;;9.41;78.67
41312;BME280;27061;41.648;24.568;2023-05-01T05:45:25;85965.72;;;9.55;78.63
41312;BME280;27061;41.648;24.568;2023-05-01T05:47:52;85971.25;;;9.60;78.60
41312;BME280;27061;41.648;24.568;2023-05-01T05:50:19;85921.72;;;9.29;78.15
41312;BME280;27061;41.648;24.568;2023-05-01T05:52:46;85977.31;;;9.76;79.27
41312;BME280;27061;41.648;24.568;2023-05-01T05:55:14;85911.28;;;9.42;79.67
41312;BME280;27061;41.648;24.568;2023-05-01T05:57:50;85931.88;;;9.57;77.26
41312;BME280;27061;41.648;24.568;2023-05-01T06:00:17;85970.94;;;9.96;76.57
41312;BME280;27061;41.648;24.568;2023-05-01T06:02:48;85981.16;;;10.12;74.33
41312;BME280;27061;41.648;24.568;2023-05-01T06:05:17;85963.97;;;10.01;74.14
41312;BME280;27061;41.648;24.568;2023-05-01T06:07:45;85942.03;;;9.81;72.31
41312;BME280;27061;41.648;24.568;2023-05-01T06:10:12;85954.31;;;10.00;75.63
41312;BME280;27061;41.648;24.568;2023-05-01T06:12:40;85954.25;;;10.06;77.56
41312;BME280;27061;41.648;24.568;2023-05-01T06:15:13;85949.44;;;10.03;77.74
41312;BME280;27061;41.648;24.568;2023-05-01T06:17:49;85979.63;;;10.31;77.04
41312;BME280;27061;41.648;24.568;2023-05-01T06:20:17;85999.47;;;10.54;76.58
41312;BME280;27061;41.648;24.568;2023-05-01T06:22:44;85949.97;;;10.23;75.39
41312;BME280;27061;41.648;24.568;2023-05-01T06:25:35;85978.81;;;10.45;75.03
41312;BME280;27061;41.648;24.568;2023-05-01T06:28:03;86004.81;;;10.70;74.17
41312;BME280;27061;41.648;24.568;2023-05-01T06:30:32;85967.66;;;10.51;73.96
41312;BME280;27061;41.648;24.568;2023-05-01T06:33:00;85894.81;;;10.03;73.75
41312;BME280;27061;41.648;24.568;2023-05-01T06:35:30;86008.03;;;10.93;72.01
41312;BME280;27061;41.648;24.568;2023-05-01T06:37:57;85984.59;;;10.84;71.96
41312;BME280;27061;41.648;24.568;2023-05-01T06:40:26;85979.13;;;10.78;72.56
41312;BME280;27061;41.648;24.568;2023-05-01T06:42:53;85915.06;;;10.51;71.33
41312;BME280;27061;41.648;24.568;2023-05-01T06:45:25;85965.75;;;10.96;70.78
41312;BME280;27061;41.648;24.568;2023-05-01T06:47:52;85988.31;;;11.19;69.25
41312;BME280;27061;41.648;24.568;2023-05-01T06:50:20;85997.94;;;11.24;69.12
41312;BME280;27061;41.648;24.568;2023-05-01T06:52:47;86001.25;;;11.37;68.97
41312;BME280;27061;41.648;24.568;2023-05-01T06:55:14;85965.50;;;11.17;69.71
41312;BME280;27061;41.648;24.568;2023-05-01T06:57:42;85967.56;;;11.18;71.35
41312;BME280;27061;41.648;24.568;2023-05-01T07:00:10;85996.91;;;11.50;71.86
41312;BME280;27061;41.648;24.568;2023-05-01T07:02:38;85980.50;;;11.34;71.32
41312;BME280;27061;41.648;24.568;2023-05-01T07:05:06;86016.03;;;11.70;71.53
41312;BME280;27061;41.648;24.568;2023-05-01T07:07:33;86004.94;;;11.72;71.38
41312;BME280;27061;41.648;24.568;2023-05-01T07:10:04;86011.72;;;11.84;66.50
41312;BME280;27061;41.648;24.568;2023-05-01T07:12:32;86015.88;;;11.85;64.65
41312;BME280;27061;41.648;24.568;2023-05-01T07:14:59;86012.94;;;11.97;62.80
41312;BME280;27061;41.648;24.568;2023-05-01T07:17:28;85980.72;;;11.67;62.09
41312;BME280;27061;41.648;24.568;2023-05-01T07:19:55;86012.84;;;12.01;61.41
41312;BME280;27061;41.648;24.568;2023-05-01T07:22:22;85986.75;;;11.84;64.14
41312;BME280;27061;41.648;24.568;2023-05-01T07:24:50;86005.88;;;12.04;66.54
41312;BME280;27061;41.648;24.568;2023-05-01T07:27:17;86014.06;;;12.12;67.99
41312;BME280;27061;41.648;24.568;2023-05-01T07:29:44;86012.84;;;12.01;67.31
41312;BME280;27061;41.648;24.568;2023-05-01T07:32:11;86016.75;;;12.18;65.86
41312;BME280;27061;41.648;24.568;2023-05-01T07:34:39;86032.47;;;12.34;65.34
41312;BME280;27061;41.648;24.568;2023-05-01T07:37:06;86023.38;;;12.37;64.81
41312;BME280;27061;41.648;24.568;2023-05-01T07:39:33;86029.53;;;12.42;65.01
41312;BME280;27061;41.648;24.568;2023-05-01T07:42:00;85967.00;;;12.06;65.90
41312;BME280;27061;41.648;24.568;2023-05-01T07:44:27;86035.56;;;12.57;66.62
41312;BME280;27061;41.648;24.568;2023-05-01T07:46:54;86022.91;;;12.66;67.92
41312;BME280;27061;41.648;24.568;2023-05-01T07:49:21;86030.31;;;12.79;65.06
41312;BME280;27061;41.648;24.568;2023-05-01T07:51:48;85991.00;;;12.63;65.33
41312;BME280;27061;41.648;24.568;2023-05-01T07:54:15;85971.16;;;12.48;63.99
41312;BME280;27061;41.648;24.568;2023-05-01T07:56:47;85975.72;;;12.64;63.50
41312;BME280;27061;41.648;24.568;2023-05-01T07:59:15;86004.59;;;12.81;63.63
41312;BME280;27061;41.648;24.568;2023-05-01T08:01:42;86044.97;;;13.15;62.38
41312;BME280;27061;41.648;24.568;2023-05-01T08:04:09;85975.47;;;12.78;62.30
41312;BME280;27061;41.648;24.568;2023-05-01T08:06:36;86035.69;;;13.27;60.93
41312;BME280;27061;41.648;24.568;2023-05-01T08:09:04;86015.16;;;13.09;60.72
41312;BME280;27061;41.648;24.568;2023-05-01T08:11:31;85963.69;;;12.75;61.17
41312;BME280;27061;41.648;24.568;2023-05-01T08:13:59;86016.41;;;13.18;62.73
41312;BME280;27061;41.648;24.568;2023-05-01T08:16:26;85988.97;;;12.98;62.51
41312;BME280;27061;41.648;24.568;2023-05-01T08:18:54;86000.09;;;12.98;62.08
41312;BME280;27061;41.648;24.568;2023-05-01T08:21:21;86015.16;;;13.09;59.75
41312;BME280;27061;41.648;24.568;2023-05-01T08:23:48;85944.44;;;12.65;55.11
41312;BME280;27061;41.648;24.568;2023-05-01T08:26:16;86053.53;;;13.40;58.00
41312;BME280;27061;41.648;24.568;2023-05-01T08:28:46;86012.94;;;13.18;60.49
41312;BME280;27061;41.648;24.568;2023-05-01T08:31:14;86047.06;;;13.49;60.98
41312;BME280;27061;41.648;24.568;2023-05-01T08:33:41;86044.78;;;13.60;60.70
41312;BME280;27061;41.648;24.568;2023-05-01T08:36:10;86000.88;;;13.32;61.40
41312;BME280;27061;41.648;24.568;2023-05-01T08:38:37;86045.09;;;13.79;61.21
41312;BME280;27061;41.648;24.568;2023-05-01T08:41:05;86051.38;;;13.77;59.56
41312;BME280;27061;41.648;24.568;2023-05-01T08:43:32;86025.28;;;13.62;57.78
41312;BME280;27061;41.648;24.568;2023-05-01T08:46:00;86013.97;;;13.70;56.76
41312;BME280;27061;41.648;24.568;2023-05-01T08:48:28;86052.84;;;14.07;52.54
41312;BME280;27061;41.648;24.568;2023-05-01T08:50:56;86039.88;;;13.96;56.43
41312;BME280;27061;41.648;24.568;2023-05-01T08:53:26;86047.88;;;14.12;58.21
41312;BME280;27061;41.648;24.568;2023-05-01T08:55:54;86003.28;;;13.83;58.30
41312;BME280;27061;41.648;24.568;2023-05-01T08:58:23;86012.16;;;13.89;58.23
41312;BME280;27061;41.648;24.568;2023-05-01T09:00:52;86045.72;;;14.14;57.87
41312;BME280;27061;41.648;24.568;2023-05-01T09:03:22;86047.63;;;14.22;57.80
41312;BME280;27061;41.648;24.568;2023-05-01T09:05:51;86027.72;;;14.09;58.05
41312;BME280;27061;41.648;24.568;2023-05-01T09:08:19;86038.69;;;14.17;57.65
41312;BME280;27061;41.648;24.568;2023-05-01T09:10:49;86057.19;;;14.31;56.65
41312;BME280;27061;41.648;24.568;2023-05-01T09:13:18;85990.47;;;13.96;52.62
41312;BME280;27061;41.648;24.568;2023-05-01T09:15:45;86035.03;;;14.25;52.08
41312;BME280;27061;41.648;24.568;2023-05-01T09:18:12;86024.81;;;14.15;52.11
41312;BME280;27061;41.648;24.568;2023-05-01T09:20:39;86019.91;;;14.18;56.11
41312;BME280;27061;41.648;24.568;2023-05-01T09:23:07;86051.28;;;14.47;55.51
41312;BME280;27061;41.648;24.568;2023-05-01T09:25:34;85989.75;;;13.98;57.84
41312;BME280;27061;41.648;24.568;2023-05-01T09:28:04;86030.56;;;14.40;58.36
41312;BME280;27061;41.648;24.568;2023-05-01T09:30:32;86063.97;;;14.71;58.55
41312;BME280;27061;41.648;24.568;2023-05-01T09:33:11;86046.69;;;14.64;58.23
41312;BME280;27061;41.648;24.568;2023-05-01T09:35:55;86067.13;;;14.84;55.92
41312;BME280;27061;41.648;24.568;2023-05-01T09:38:24;86021.56;;;14.36;55.28
41312;BME280;27061;41.648;24.568;2023-05-01T09:40:53;86075.72;;;14.74;55.27
41312;BME280;27061;41.648;24.568;2023-05-01T09:43:29;86088.25;;;14.75;54.93
41312;BME280;27061;41.648;24.568;2023-05-01T09:46:06;86084.16;;;14.72;56.53
41312;BME280;27061;41.648;24.568;2023-05-01T09:48:36;86044.97;;;14.18;57.39
41312;BME280;27061;41.648;24.568;2023-05-01T09:51:24;86039.88;;;13.96;56.38
41312;BME280;27061;41.648;24.568;2023-05-01T09:54:00;86101.88;;;14.25;60.62
41312;BME280;27061;41.648;24.568;2023-05-01T09:56:32;86054.91;;;13.76;59.76
41312;BME280;27061;41.648;24.568;2023-05-01T09:59:16;86102.84;;;14.11;61.29
41312;BME280;27061;41.648;24.568;2023-05-01T10:01:45;86092.50;;;14.08;61.22
41312;BME280;27061;41.648;24.568;2023-05-01T10:04:14;86097.38;;;14.07;59.85
41312;BME280;27061;41.648;24.568;2023-05-01T10:06:41;86078.94;;;13.89;60.47
41312;BME280;27061;41.648;24.568;2023-05-01T10:09:08;86085.56;;;14.07;62.01
41312;BME280;27061;41.648;24.568;2023-05-01T10:11:49;86088.50;;;13.99;58.66
41312;BME280;27061;41.648;24.568;2023-05-01T10:14:18;86026.88;;;13.51;58.07
41312;BME280;27061;41.648;24.568;2023-05-01T10:16:46;86051.47;;;13.73;61.11
41312;BME280;27061;41.648;24.568;2023-05-01T10:19:14;86086.59;;;13.91;60.81
41312;BME280;27061;41.648;24.568;2023-05-01T10:21:42;86050.09;;;13.72;63.04
41312;BME280;27061;41.648;24.568;2023-05-01T10:24:12;86080.69;;;14.07;62.21
41312;BME280;27061;41.648;24.568;2023-05-01T10:26:41;86037.44;;;13.79;62.40
41312;BME280;27061;41.648;24.568;2023-05-01T10:29:11;86075.38;;;14.28;60.80
41312;BME280;27061;41.648;24.568;2023-05-01T10:31:38;86017.44;;;14.04;58.02
41312;BME280;27061;41.648;24.568;2023-05-01T10:34:18;86043.13;;;14.37;55.36
41312;BME280;27061;41.648;24.568;2023-05-01T10:36:53;86045.63;;;14.51;56.07
41312;BME280;27061;41.648;24.568;2023-05-01T10:39:29;86080.91;;;14.90;56.35
41312;BME280;27061;41.648;24.568;2023-05-01T10:44:25;86057.44;;;15.10;55.39
41312;BME280;27061;41.648;24.568;2023-05-01T10:46:53;86050.00;;;15.00;52.07
41312;BME280;27061;41.648;24.568;2023-05-01T10:49:21;86046.75;;;15.18;52.09
41312;BME280;27061;41.648;24.568;2023-05-01T10:51:58;86073.03;;;15.54;51.65
41312;BME280;27061;41.648;24.568;2023-05-01T10:54:30;86074.88;;;15.64;54.30
41312;BME280;27061;41.648;24.568;2023-05-01T10:57:00;86017.13;;;15.31;47.55
41312;BME280;27061;41.648;24.568;2023-05-01T11:02:28;86070.03;;;15.62;51.26
41312;BME280;27061;41.648;24.568;2023-05-01T11:04:56;86094.03;;;15.78;48.38
41312;BME280;27061;41.648;24.568;2023-05-01T11:07:23;86085.72;;;15.76;51.57
41312;BME280;27061;41.648;24.568;2023-05-01T11:09:53;86105.03;;;15.84;53.68
41312;BME280;27061;41.648;24.568;2023-05-01T11:12:49;86110.78;;;15.78;54.50
41312;BME280;27061;41.648;24.568;2023-05-01T11:15:32;86108.25;;;15.68;55.46
41312;BME280;27061;41.648;24.568;2023-05-01T11:18:01;86098.41;;;15.71;55.99
41312;BME280;27061;41.648;24.568;2023-05-01T11:23:02;86117.44;;;15.89;50.36
41312;BME280;27061;41.648;24.568;2023-05-01T11:25:30;86062.06;;;15.46;49.72
41312;BME280;27061;41.648;24.568;2023-05-01T11:28:00;86121.38;;;15.73;50.90
41312;BME280;27061;41.648;24.568;2023-05-01T11:30:40;86039.03;;;15.21;52.98
41312;BME280;27061;41.648;24.568;2023-05-01T11:33:07;86070.03;;;15.35;54.38
41312;BME280;27061;41.648;24.568;2023-05-01T11:35:37;86060.47;;;15.26;55.38
41312;BME280;27061;41.648;24.568;2023-05-01T11:38:04;86049.69;;;15.12;56.78
41312;BME280;27061;41.648;24.568;2023-05-01T11:40:32;86114.22;;;15.52;52.80
41312;BME280;27061;41.648;24.568;2023-05-01T11:45:28;86081.69;;;14.86;55.51
41312;BME280;27061;41.648;24.568;2023-05-01T11:47:56;86089.53;;;14.80;55.69
41312;BME280;27061;41.648;24.568;2023-05-01T11:53:03;86061.16;;;14.71;54.63
41312;BME280;27061;41.648;24.568;2023-05-01T11:55:31;86026.97;;;14.44;54.75
41312;BME280;27061;41.648;24.568;2023-05-01T11:58:00;86102.88;;;15.04;53.82
41312;BME280;27061;41.648;24.568;2023-05-01T12:03:06;86035.69;;;14.58;54.95
41312;BME280;27061;41.648;24.568;2023-05-01T12:05:41;86073.94;;;14.91;55.15
41312;BME280;27061;41.648;24.568;2023-05-01T12:08:14;86028.72;;;14.59;58.69
41312;BME280;27061;41.648;24.568;2023-05-01T12:10:45;86092.91;;;15.13;58.93
41312;BME280;27061;41.648;24.568;2023-05-01T12:13:14;86085.09;;;15.18;55.45
41312;BME280;27061;41.648;24.568;2023-05-01T12:15:46;86063.22;;;15.01;55.40
41312;BME280;27061;41.648;24.568;2023-05-01T12:18:14;86051.38;;;15.01;52.94
41312;BME280;27061;41.648;24.568;2023-05-01T12:20:49;86096.81;;;15.24;53.72
41312;BME280;27061;41.648;24.568;2023-05-01T12:23:28;86047.34;;;14.94;52.00
41312;BME280;27061;41.648;24.568;2023-05-01T12:25:56;86076.38;;;15.32;52.76
41312;BME280;27061;41.648;24.568;2023-05-01T12:28:23;86038.66;;;15.08;49.02
41312;BME280;27061;41.648;24.568;2023-05-01T12:30:52;86043.31;;;15.16;51.16
41312;BME280;27061;41.648;24.568;2023-05-01T12:33:24;86044.44;;;15.00;50.21
41312;BME280;27061;41.648;24.568;2023-05-01T12:35:51;86013.25;;;14.93;52.32
41312;BME280;27061;41.648;24.568;2023-05-01T12:38:22;86035.38;;;15.26;53.25
41312;BME280;27061;41.648;24.568;2023-05-01T12:40:58;86046.06;;;15.45;50.97
41312;BME280;27061;41.648;24.568;2023-05-01T12:43:32;86029.59;;;15.34;48.14
41312;BME280;27061;41.648;24.568;2023-05-01T12:46:00;86063.59;;;15.68;47.43
41312;BME280;27061;41.648;24.568;2023-05-01T12:48:28;86077.38;;;15.74;49.91
41312;BME280;27061;41.648;24.568;2023-05-01T12:50:56;85995.50;;;15.05;51.37
41312;BME280;27061;41.648;24.568;2023-05-01T12:53:25;86055.91;;;15.42;52.70
41312;BME280;27061;41.648;24.568;2023-05-01T12:55:55;86093.00;;;15.65;51.29
41312;BME280;27061;41.648;24.568;2023-05-01T12:58:33;86101.09;;;15.75;49.97
41312;BME280;27061;41.648;24.568;2023-05-01T13:01:01;86099.53;;;15.53;50.15
41312;BME280;27061;41.648;24.568;2023-05-01T13:03:29;86099.22;;;15.38;49.90
41312;BME280;27061;41.648;24.568;2023-05-01T13:08:44;86129.03;;;15.17;53.79
41312;BME280;27061;41.648;24.568;2023-05-01T13:11:12;86107.34;;;14.93;52.82
41312;BME280;27061;41.648;24.568;2023-05-01T13:13:42;86109.22;;;14.41;53.18
41312;BME280;27061;41.648;24.568;2023-05-01T13:16:14;86055.44;;;14.15;54.31
41312;BME280;27061;41.648;24.568;2023-05-01T13:18:42;86141.88;;;14.44;55.79
41312;BME280;27061;41.648;24.568;2023-05-01T13:21:12;86145.97;;;14.47;54.69
41312;BME280;27061;41.648;24.568;2023-05-01T13:23:52;86065.88;;;13.84;55.33
41312;BME280;27061;41.648;24.568;2023-05-01T13:26:27;86136.66;;;14.26;56.23
41312;BME280;27061;41.648;24.568;2023-05-01T13:28:57;86125.97;;;14.04;58.59
41312;BME280;27061;41.648;24.568;2023-05-01T13:31:26;86157.69;;;14.19;59.15
41312;BME280;27061;41.648;24.568;2023-05-01T13:33:54;86155.03;;;14.13;60.96
41312;BME280;27061;41.648;24.568;2023-05-01T13:36:23;86103.84;;;13.63;62.14
41312;BME280;27061;41.648;24.568;2023-05-01T13:38:54;86125.19;;;13.74;62.20
41312;BME280;27061;41.648;24.568;2023-05-01T13:41:24;86169.03;;;14.09;62.09